createdAt,value
2023-02-23T00:01:22.953Z,72.26
2023-02-23T00:04:26.411Z,71.85
2023-02-23T00:07:33.395Z,71.34
2023-02-23T00:10:36.687Z,72.11
2023-02-23T00:13:42.121Z,71.62
2023-02-23T00:16:46.434Z,71.72
2023-02-23T00:19:49.555Z,72.03
2023-02-23T00:22:57.264Z,71.73
2023-02-23T00:26:01.228Z,71.68
2023-02-23T00:29:19.045Z,71.04
2023-02-23T00:32:24.023Z,70.69
2023-02-23T00:35:27.357Z,70.91
2023-02-23T00:38:35.952Z,71.67
2023-02-23T00:41:38.826Z,71.33
2023-02-23T00:44:42.674Z,70.92
2023-02-23T00:47:48.825Z,70.80
2023-02-23T00:51:03.383Z,71.28
2023-02-23T00:54:08.259Z,71.40
2023-02-23T00:57:10.831Z,71.75
2023-02-23T01:00:20.317Z,70.93
2023-02-23T01:03:23.808Z,71.70
2023-02-23T01:06:26.798Z,71.15
2023-02-23T01:09:29.683Z,70.94
2023-02-23T01:12:33.535Z,71.45
2023-02-23T01:15:43.152Z,70.97
2023-02-23T01:18:46.954Z,70.83
2023-02-23T01:21:50.093Z,71.11
2023-02-23T01:24:56.374Z,70.55
2023-02-23T01:27:58.975Z,71.06
2023-02-23T01:31:03.246Z,70.77
2023-02-23T01:34:06.863Z,70.54
2023-02-23T01:37:11.003Z,70.76
2023-02-23T01:40:31.261Z,70.79
2023-02-23T01:43:37.315Z,71.23
2023-02-23T01:46:46.564Z,70.17
2023-02-23T01:49:51.887Z,70.21
2023-02-23T01:52:56.906Z,70.72
2023-02-23T01:56:14.893Z,70.52
2023-02-23T01:59:20.775Z,71.23
2023-02-23T02:02:33.885Z,70.99
2023-02-23T02:05:39.545Z,70.98
2023-02-23T02:08:50.808Z,70.97
2023-02-23T02:11:55.242Z,71.01
2023-02-23T02:15:00.736Z,71.17
2023-02-23T02:18:09.374Z,71.27
2023-02-23T02:21:28.542Z,71.40
2023-02-23T02:25:03.064Z,70.89
2023-02-23T02:28:39.817Z,71.23
2023-02-23T02:32:21.979Z,70.99
2023-02-23T02:35:33.895Z,71.37
2023-02-23T02:39:10.925Z,71.25
2023-02-23T02:42:43.924Z,70.56
2023-02-23T02:46:19.967Z,70.37
2023-02-23T02:49:28.843Z,70.51
2023-02-23T02:52:40.968Z,70.38
2023-02-23T02:55:48.360Z,70.83
2023-02-23T02:58:53.670Z,70.21
2023-02-23T03:02:23.548Z,70.06
2023-02-23T03:06:10.544Z,70.14
2023-02-23T03:10:11.719Z,70.55
2023-02-23T03:14:14.651Z,70.83
2023-02-23T03:17:39.135Z,70.82
2023-02-23T03:21:06.519Z,70.95
2023-02-23T03:24:30.946Z,71.97
2023-02-23T03:27:55.291Z,71.84
2023-02-23T03:31:54.766Z,71.99
2023-02-23T03:35:33.090Z,71.46
2023-02-23T03:39:02.847Z,71.54
2023-02-23T03:42:31.977Z,71.38
2023-02-23T03:45:55.481Z,72.32
2023-02-23T03:49:20.942Z,71.57
2023-02-23T03:53:00.556Z,71.23
2023-02-23T03:56:23.147Z,71.59
2023-02-23T03:59:52.957Z,72.58
2023-02-23T04:03:18.851Z,72.20
2023-02-23T04:06:44.712Z,72.87
2023-02-23T04:10:07.132Z,73.00
2023-02-23T04:13:21.236Z,73.17
2023-02-23T04:16:25.475Z,72.72
2023-02-23T04:19:29.212Z,73.95
2023-02-23T04:22:35.532Z,73.76
2023-02-23T04:25:41.046Z,73.71
2023-02-23T04:28:43.860Z,73.67
2023-02-23T04:31:47.375Z,73.64
2023-02-23T04:34:50.147Z,73.80
2023-02-23T04:37:53.170Z,73.29
2023-02-23T04:40:56.511Z,73.48
2023-02-23T04:44:00.008Z,72.75
2023-02-23T04:47:02.655Z,73.07
2023-02-23T04:50:06.390Z,73.75
2023-02-23T04:53:10.049Z,72.82
2023-02-23T04:56:13.119Z,73.50
2023-02-23T04:59:18.439Z,72.37
2023-02-23T05:02:23.028Z,72.86
2023-02-23T05:05:26.265Z,72.68
2023-02-23T05:08:31.274Z,72.36
2023-02-23T05:11:34.199Z,73.32
2023-02-23T05:14:37.291Z,74.36
2023-02-23T05:17:43.756Z,73.90
2023-02-23T05:20:48.029Z,73.87
2023-02-23T05:23:51.304Z,73.39
2023-02-23T05:26:57.883Z,73.18
2023-02-23T05:30:01.447Z,74.59
2023-02-23T05:33:06.229Z,74.69
2023-02-23T05:36:11.017Z,74.80
2023-02-23T05:39:15.207Z,74.64
2023-02-23T05:42:19.490Z,75.40
2023-02-23T05:45:24.609Z,74.09
2023-02-23T05:48:29.093Z,74.72
2023-02-23T05:51:34.255Z,73.84
2023-02-23T05:54:37.413Z,74.81
2023-02-23T05:57:45.930Z,74.52
2023-02-23T06:00:52.561Z,73.76
2023-02-23T06:03:58.120Z,74.20
2023-02-23T06:07:02.371Z,75.00
2023-02-23T06:10:07.213Z,74.76
2023-02-23T06:13:13.502Z,74.67
2023-02-23T06:16:16.764Z,74.54
2023-02-23T06:19:21.661Z,74.16
2023-02-23T06:22:24.948Z,74.69
2023-02-23T06:25:31.108Z,73.61
2023-02-23T06:28:37.690Z,72.78
2023-02-23T06:31:40.585Z,73.01
2023-02-23T06:34:44.964Z,72.22
2023-02-23T06:37:55.879Z,74.21
2023-02-23T06:41:00.922Z,74.67
2023-02-23T06:44:04.120Z,71.61
2023-02-23T06:47:07.748Z,72.51
2023-02-23T06:50:11.334Z,72.04
2023-02-23T06:53:14.716Z,71.79
2023-02-23T06:56:18.179Z,71.94
2023-02-23T06:59:21.657Z,71.41
2023-02-23T07:02:25.477Z,71.53
2023-02-23T07:05:31.798Z,72.68
2023-02-23T07:08:35.185Z,69.85
2023-02-23T07:11:41.198Z,70.22
2023-02-23T07:14:45.473Z,70.26
2023-02-23T07:17:51.636Z,69.56
2023-02-23T07:20:58.232Z,70.43
2023-02-23T07:24:04.929Z,70.40
2023-02-23T07:27:08.041Z,69.51
2023-02-23T07:30:12.392Z,70.61
2023-02-23T07:33:16.535Z,69.49
2023-02-23T07:36:19.575Z,67.69
2023-02-23T07:39:22.606Z,68.45
2023-02-23T07:42:26.974Z,67.06
2023-02-23T07:45:29.693Z,68.38
2023-02-23T07:48:36.381Z,67.99
2023-02-23T07:51:39.848Z,67.43
2023-02-23T07:54:43.982Z,67.20
2023-02-23T07:57:47.262Z,66.60
2023-02-23T08:00:51.755Z,66.32
2023-02-23T08:03:54.761Z,66.15
2023-02-23T08:07:00.048Z,65.67
2023-02-23T08:10:03.761Z,65.11
2023-02-23T08:13:06.777Z,65.51
2023-02-23T08:16:10.051Z,65.50
2023-02-23T08:19:12.716Z,64.66
2023-02-23T08:22:15.883Z,65.29
2023-02-23T08:25:19.226Z,65.16
2023-02-23T08:28:24.784Z,65.12
2023-02-23T08:31:27.820Z,65.13
2023-02-23T08:34:31.934Z,63.72
2023-02-23T08:37:38.646Z,66.14
2023-02-23T08:40:43.637Z,64.51
2023-02-23T08:43:54.019Z,64.03
2023-02-23T08:46:58.706Z,63.82
2023-02-23T08:50:01.772Z,63.60
2023-02-23T08:53:07.322Z,64.30
2023-02-23T08:56:11.208Z,63.46
2023-02-23T08:59:15.532Z,63.13
2023-02-23T09:02:18.288Z,64.34
2023-02-23T09:05:21.544Z,64.49
2023-02-23T09:08:26.150Z,64.58
2023-02-23T09:11:30.405Z,62.27
2023-02-23T09:14:33.810Z,62.23
2023-02-23T09:17:38.039Z,62.16
2023-02-23T09:20:45.716Z,61.28
2023-02-23T09:23:56.133Z,60.80
2023-02-23T09:26:58.936Z,60.53
2023-02-23T09:30:05.880Z,61.69
2023-02-23T09:33:09.691Z,60.96
2023-02-23T09:36:19.464Z,59.48
2023-02-23T09:39:37.226Z,59.81
2023-02-23T09:42:57.228Z,59.31
2023-02-23T09:46:06.136Z,60.02
2023-02-23T09:49:22.286Z,59.03
2023-02-23T09:52:33.797Z,57.75
2023-02-23T09:55:41.652Z,58.40
2023-02-23T09:58:45.171Z,57.57
2023-02-23T10:01:48.307Z,57.19
2023-02-23T10:05:02.101Z,57.01
2023-02-23T10:08:31.039Z,55.75
2023-02-23T10:12:02.419Z,55.43
2023-02-23T10:15:23.987Z,56.03
2023-02-23T10:18:46.613Z,55.15
2023-02-23T10:22:03.731Z,57.35
2023-02-23T10:25:17.958Z,55.09
2023-02-23T10:28:22.563Z,54.99
2023-02-23T10:31:46.595Z,54.81
2023-02-23T10:34:54.033Z,54.42
2023-02-23T10:37:58.533Z,52.69
2023-02-23T10:41:01.707Z,54.28
2023-02-23T10:44:16.409Z,55.01
2023-02-23T10:47:25.338Z,53.92
2023-02-23T10:50:31.631Z,53.87
2023-02-23T10:53:36.767Z,53.00
2023-02-23T10:56:46.414Z,53.55
2023-02-23T11:00:06.410Z,52.46
2023-02-23T11:03:22.691Z,53.11
2023-02-23T11:06:40.539Z,52.89
2023-02-23T11:09:47.831Z,52.68
2023-02-23T11:12:51.627Z,53.38
2023-02-23T11:16:25.443Z,53.16
2023-02-23T11:19:37.219Z,53.52
2023-02-23T11:22:42.455Z,53.14
2023-02-23T11:25:47.051Z,53.66
2023-02-23T11:28:56.590Z,52.90
2023-02-23T11:32:00.328Z,53.20
2023-02-23T11:35:21.690Z,53.65
2023-02-23T11:38:27.531Z,53.74
2023-02-23T11:41:35.318Z,55.08
2023-02-23T11:44:38.332Z,54.39
2023-02-23T11:47:48.198Z,53.91
2023-02-23T11:50:53.335Z,54.11
2023-02-23T11:53:58.000Z,55.79
2023-02-23T11:57:02.768Z,54.72
2023-02-23T12:00:12.313Z,55.80
2023-02-23T12:03:23.245Z,55.46
2023-02-23T12:06:38.346Z,54.53
2023-02-23T12:09:46.404Z,54.77
2023-02-23T12:12:53.235Z,55.25
2023-02-23T12:16:08.818Z,56.61
2023-02-23T12:19:19.548Z,57.12
2023-02-23T12:22:42.299Z,55.60
2023-02-23T12:25:57.930Z,54.87
2023-02-23T12:29:10.517Z,54.34
2023-02-23T12:32:19.796Z,54.90
2023-02-23T12:35:31.289Z,53.68
2023-02-23T12:38:54.596Z,53.82
2023-02-23T12:42:16.226Z,54.41
2023-02-23T12:45:31.628Z,53.55
2023-02-23T12:48:43.144Z,53.79
2023-02-23T12:51:58.292Z,54.40
2023-02-23T12:55:01.007Z,53.36
2023-02-23T12:58:23.192Z,52.88
2023-02-23T13:01:38.916Z,52.78
2023-02-23T13:04:45.074Z,52.90
2023-02-23T13:08:12.941Z,52.26
2023-02-23T13:11:43.078Z,52.94
2023-02-23T13:14:45.795Z,52.70
2023-02-23T13:18:29.623Z,52.58
2023-02-23T13:21:44.737Z,54.40
2023-02-23T13:24:51.440Z,52.92
2023-02-23T13:28:03.001Z,53.97
2023-02-23T13:31:25.700Z,54.51
2023-02-23T13:34:33.342Z,55.13
2023-02-23T13:38:20.106Z,54.54
2023-02-23T13:41:38.312Z,55.10
2023-02-23T13:45:03.612Z,55.90
2023-02-23T13:48:39.799Z,55.21
2023-02-23T13:52:21.363Z,54.56
2023-02-23T13:55:48.174Z,57.48
2023-02-23T13:59:01.039Z,56.65
2023-02-23T14:02:33.096Z,56.15
2023-02-23T14:05:45.167Z,57.23
2023-02-23T14:09:11.990Z,56.55
2023-02-23T14:12:23.358Z,56.64
2023-02-23T14:15:27.388Z,57.28
2023-02-23T14:18:33.705Z,56.60
2023-02-23T14:21:57.432Z,57.18
2023-02-23T14:25:34.659Z,57.69
2023-02-23T14:28:42.720Z,56.78
2023-02-23T14:32:11.658Z,57.23
2023-02-23T14:35:35.174Z,56.58
2023-02-23T14:38:47.905Z,56.28
2023-02-23T14:41:53.998Z,56.17
2023-02-23T14:45:02.907Z,56.74
2023-02-23T14:48:11.741Z,56.30
2023-02-23T14:51:24.801Z,55.33
2023-02-23T14:54:33.318Z,55.75
2023-02-23T14:57:41.057Z,55.37
2023-02-23T15:00:44.466Z,55.25
2023-02-23T15:04:12.776Z,56.11
2023-02-23T15:07:24.088Z,56.72
2023-02-23T15:10:41.078Z,56.42
2023-02-23T15:13:50.343Z,55.91
2023-02-23T15:16:56.083Z,59.31
2023-02-23T15:20:15.974Z,56.75
2023-02-23T15:23:21.599Z,62.21
2023-02-23T15:26:35.459Z,60.49
2023-02-23T15:29:38.512Z,57.10
2023-02-23T15:32:42.555Z,58.13
2023-02-23T15:35:57.014Z,57.42
2023-02-23T15:39:03.817Z,57.91
2023-02-23T15:42:11.098Z,58.08
2023-02-23T15:45:28.555Z,58.55
2023-02-23T15:48:51.284Z,58.14
2023-02-23T15:52:09.532Z,57.97
2023-02-23T15:55:24.197Z,58.59
2023-02-23T15:59:01.752Z,68.13
2023-02-23T16:02:18.028Z,58.72
2023-02-23T16:05:24.002Z,58.58
2023-02-23T16:08:29.715Z,60.43
2023-02-23T16:11:36.107Z,61.09
2023-02-23T16:15:04.385Z,62.16
2023-02-23T16:18:16.051Z,60.96
2023-02-23T16:21:24.410Z,60.39
2023-02-23T16:24:29.201Z,58.11
2023-02-23T16:27:33.283Z,59.85
2023-02-23T16:30:51.171Z,59.09
2023-02-23T16:34:00.118Z,59.46
2023-02-23T16:37:15.769Z,59.24
2023-02-23T16:40:19.839Z,60.71
2023-02-23T16:43:23.093Z,58.62
2023-02-23T16:46:30.451Z,60.63
2023-02-23T16:49:33.643Z,58.28
2023-02-23T16:52:36.549Z,59.06
2023-02-23T16:55:54.689Z,59.53
2023-02-23T16:59:02.810Z,60.19
2023-02-23T17:02:09.915Z,59.61
2023-02-23T17:05:14.825Z,60.60
2023-02-23T17:08:21.521Z,60.81
2023-02-23T17:11:24.272Z,60.25
2023-02-23T17:14:28.331Z,59.79
2023-02-23T17:17:31.528Z,60.39
2023-02-23T17:20:34.763Z,61.21
2023-02-23T17:23:48.400Z,62.76
2023-02-23T17:26:53.169Z,63.59
2023-02-23T17:29:56.210Z,63.45
2023-02-23T17:33:02.205Z,62.15
2023-02-23T17:36:08.378Z,61.59
2023-02-23T17:39:14.198Z,61.40
2023-02-23T17:42:18.253Z,60.99
2023-02-23T17:45:22.780Z,60.94
2023-02-23T17:48:27.814Z,60.83
2023-02-23T17:51:31.164Z,61.02
2023-02-23T17:54:34.168Z,61.07
2023-02-23T17:57:37.466Z,61.62
2023-02-23T18:00:40.976Z,62.21
2023-02-23T18:03:45.561Z,63.24
2023-02-23T18:06:48.807Z,62.73
2023-02-23T18:09:52.516Z,62.84
2023-02-23T18:12:55.577Z,62.78
2023-02-23T18:16:09.227Z,63.63
2023-02-23T18:19:13.229Z,64.11
2023-02-23T18:22:20.042Z,64.07
2023-02-23T18:25:28.147Z,63.31
2023-02-23T18:28:31.348Z,65.34
2023-02-23T18:31:35.230Z,66.09
2023-02-23T18:34:39.108Z,65.56
2023-02-23T18:37:42.985Z,66.19
2023-02-23T18:40:46.839Z,66.11
2023-02-23T18:43:50.860Z,66.15
2023-02-23T18:46:57.251Z,64.41
2023-02-23T18:50:03.048Z,64.54
2023-02-23T18:53:10.974Z,64.67
2023-02-23T18:56:16.805Z,64.84
2023-02-23T18:59:22.327Z,64.65
2023-02-23T19:02:27.281Z,64.30
2023-02-23T19:05:30.723Z,64.01
2023-02-23T19:08:34.012Z,64.56
2023-02-23T19:11:38.597Z,65.00
2023-02-23T19:14:49.611Z,64.94
2023-02-23T19:17:54.624Z,64.82
2023-02-23T19:20:57.484Z,65.54
2023-02-23T19:24:02.776Z,65.69
2023-02-23T19:27:06.316Z,65.94
2023-02-23T19:30:14.846Z,66.01
2023-02-23T19:33:21.569Z,66.65
2023-02-23T19:36:30.737Z,66.52
2023-02-23T19:39:33.709Z,67.05
2023-02-23T19:42:43.049Z,67.16
2023-02-23T19:45:48.987Z,67.56
2023-02-23T19:48:54.938Z,67.09
2023-02-23T19:51:58.272Z,67.82
2023-02-23T19:55:03.772Z,68.32
2023-02-23T19:58:13.366Z,68.81
2023-02-23T20:01:19.475Z,68.36
2023-02-23T20:04:23.441Z,68.56
2023-02-23T20:07:26.642Z,69.09
2023-02-23T20:10:35.127Z,69.04
2023-02-23T20:13:39.169Z,69.22
2023-02-23T20:16:42.590Z,69.54
2023-02-23T20:19:46.356Z,69.27
2023-02-23T20:22:52.533Z,69.15
2023-02-23T20:25:56.320Z,69.35
2023-02-23T20:28:59.271Z,69.97
2023-02-23T20:32:04.545Z,69.95
2023-02-23T20:35:08.012Z,70.22
2023-02-23T20:38:11.697Z,69.70
2023-02-23T20:41:15.289Z,69.97
2023-02-23T20:44:18.315Z,70.90
2023-02-23T20:47:24.741Z,71.22
2023-02-23T20:50:34.009Z,71.57
2023-02-23T20:53:37.444Z,71.66
2023-02-23T20:56:43.478Z,71.02
2023-02-23T20:59:49.833Z,70.31
2023-02-23T21:02:56.449Z,69.99
2023-02-23T21:05:59.924Z,70.47
2023-02-23T21:09:17.075Z,70.47
2023-02-23T21:12:21.649Z,70.08
2023-02-23T21:15:29.094Z,69.78
2023-02-23T21:18:32.574Z,70.54
2023-02-23T21:21:47.803Z,70.75
2023-02-23T21:24:51.362Z,70.32
2023-02-23T21:27:56.340Z,70.74
2023-02-23T21:31:01.973Z,70.70
2023-02-23T21:34:06.656Z,70.15
2023-02-23T21:37:09.832Z,70.21
2023-02-23T21:40:18.952Z,69.30
2023-02-23T21:43:23.294Z,69.20
2023-02-23T21:46:26.477Z,69.30
2023-02-23T21:49:32.145Z,69.96
2023-02-23T21:52:35.316Z,69.69
2023-02-23T21:55:40.080Z,70.01
2023-02-23T21:58:52.343Z,69.78
2023-02-23T22:01:55.462Z,69.07
2023-02-23T22:04:58.586Z,69.39
2023-02-23T22:08:01.145Z,68.84
2023-02-23T22:11:09.148Z,69.14
2023-02-23T22:14:12.292Z,70.62
2023-02-23T22:17:18.904Z,70.79
2023-02-23T22:20:22.401Z,70.17
2023-02-23T22:23:27.946Z,69.97
2023-02-23T22:26:30.608Z,69.71
2023-02-23T22:29:33.600Z,69.85
2023-02-23T22:32:36.891Z,69.90
2023-02-23T22:35:41.215Z,70.84
2023-02-23T22:38:46.706Z,70.17
2023-02-23T22:41:50.271Z,70.15
2023-02-23T22:44:53.303Z,70.76
2023-02-23T22:48:01.478Z,72.10
2023-02-23T22:51:07.883Z,71.00
2023-02-23T22:54:11.796Z,71.11
2023-02-23T22:57:15.094Z,71.42
2023-02-23T23:00:19.724Z,71.60
2023-02-23T23:03:22.381Z,71.34
2023-02-23T23:06:27.017Z,71.38
2023-02-23T23:09:29.835Z,71.91
2023-02-23T23:12:34.514Z,71.63
2023-02-23T23:15:38.996Z,71.78
2023-02-23T23:18:49.389Z,71.25
2023-02-23T23:21:56.549Z,73.20
2023-02-23T23:25:01.947Z,73.27
2023-02-23T23:28:04.843Z,73.70
2023-02-23T23:31:10.762Z,73.28
2023-02-23T23:34:16.654Z,74.35
2023-02-23T23:37:19.938Z,74.40
2023-02-23T23:40:24.518Z,74.92
2023-02-23T23:43:28.703Z,74.66
2023-02-23T23:46:35.598Z,74.90
2023-02-23T23:49:40.776Z,74.82
2023-02-23T23:52:45.638Z,74.50
2023-02-23T23:55:48.640Z,75.58
2023-02-23T23:58:54.071Z,76.52
